createdAt,value
2018-06-08T00:00:58.830Z,23.30
2018-06-08T00:03:27.198Z,23.20
2018-06-08T00:05:55.523Z,23.10
2018-06-08T00:08:23.882Z,22.90
2018-06-08T00:10:52.232Z,22.80
2018-06-08T00:13:20.611Z,22.70
2018-06-08T00:15:49.073Z,22.70
2018-06-08T00:18:17.500Z,22.80
2018-06-08T00:20:45.860Z,22.80
2018-06-08T00:23:14.237Z,22.90
2018-06-08T00:25:42.606Z,22.90
2018-06-08T00:28:12.058Z,23.10
2018-06-08T00:30:40.426Z,23.10
2018-06-08T00:33:08.849Z,23.00
2018-06-08T00:35:37.186Z,23.30
2018-06-08T00:38:05.755Z,23.30
2018-06-08T00:40:34.109Z,23.30
2018-06-08T00:43:02.515Z,23.10
2018-06-08T00:45:30.864Z,22.80
2018-06-08T00:47:59.234Z,22.70
2018-06-08T00:50:27.601Z,22.50
2018-06-08T00:52:55.988Z,22.50
2018-06-08T00:55:24.377Z,22.40
2018-06-08T00:57:52.721Z,22.50
2018-06-08T01:00:21.101Z,22.50
2018-06-08T01:02:49.466Z,22.50
2018-06-08T01:05:17.873Z,22.50
2018-06-08T01:07:46.242Z,22.20
2018-06-08T01:10:14.654Z,22.10
2018-06-08T01:12:43.026Z,22.10
2018-06-08T01:15:11.413Z,22.10
2018-06-08T01:17:39.758Z,22.10
2018-06-08T01:20:08.173Z,22.10
2018-06-08T01:22:36.577Z,22.10
2018-06-08T01:25:04.965Z,22.10
2018-06-08T01:27:33.298Z,22.20
2018-06-08T01:30:01.693Z,22.40
2018-06-08T01:32:30.090Z,22.30
2018-06-08T01:34:58.498Z,22.30
2018-06-08T01:37:27.425Z,22.30
2018-06-08T01:39:55.782Z,22.30
2018-06-08T01:42:24.138Z,22.30
2018-06-08T01:44:52.538Z,22.50
2018-06-08T01:47:20.867Z,22.60
2018-06-08T01:49:49.297Z,22.60
2018-06-08T01:52:17.806Z,22.70
2018-06-08T01:54:46.133Z,22.70
2018-06-08T01:59:42.545Z,22.40
2018-06-08T02:02:10.873Z,22.40
2018-06-08T02:04:39.253Z,22.40
2018-06-08T02:07:07.643Z,22.40
2018-06-08T02:09:35.998Z,22.40
2018-06-08T02:12:04.367Z,22.30
2018-06-08T02:14:32.702Z,22.30
2018-06-08T02:17:01.083Z,22.40
2018-06-08T02:19:29.445Z,22.30
2018-06-08T02:21:57.809Z,22.30
2018-06-08T02:24:26.152Z,22.30
2018-06-08T02:26:54.642Z,22.20
2018-06-08T02:29:22.999Z,22.20
2018-06-08T02:31:51.368Z,22.40
2018-06-08T02:34:19.721Z,22.40
2018-06-08T02:36:49.183Z,22.50
2018-06-08T02:39:17.568Z,22.70
2018-06-08T02:41:45.933Z,22.70
2018-06-08T02:44:14.394Z,22.70
2018-06-08T02:46:42.770Z,22.60
2018-06-08T02:49:11.113Z,22.50
2018-06-08T02:51:39.492Z,22.50
2018-06-08T02:54:07.873Z,22.50
2018-06-08T02:56:36.265Z,22.60
2018-06-08T02:59:04.650Z,22.50
2018-06-08T03:01:33.098Z,22.30
2018-06-08T03:04:01.538Z,22.20
2018-06-08T03:06:29.942Z,22.20
2018-06-08T03:08:58.352Z,22.10
2018-06-08T03:11:26.789Z,22.20
2018-06-08T03:13:55.186Z,22.30
2018-06-08T03:16:23.611Z,22.40
2018-06-08T03:18:51.985Z,22.50
2018-06-08T03:21:20.394Z,22.60
2018-06-08T03:23:48.828Z,22.30
2018-06-08T03:26:17.495Z,22.20
2018-06-08T03:28:46.068Z,22.00
2018-06-08T03:31:14.498Z,22.10
2018-06-08T03:33:43.049Z,22.10
2018-06-08T03:36:11.488Z,22.10
2018-06-08T03:38:39.908Z,22.10
2018-06-08T03:41:08.348Z,22.00
2018-06-08T03:43:36.759Z,21.90
2018-06-08T03:46:05.384Z,21.80
2018-06-08T03:48:33.803Z,21.80
2018-06-08T03:51:02.177Z,21.80
2018-06-08T03:53:30.595Z,21.80
2018-06-08T03:55:59.037Z,21.80
2018-06-08T03:58:27.585Z,21.70
2018-06-08T04:00:55.974Z,21.80
2018-06-08T04:03:24.328Z,21.80
2018-06-08T04:05:52.719Z,21.80
2018-06-08T04:08:21.112Z,21.80
2018-06-08T04:10:49.480Z,22.00
2018-06-08T04:13:17.838Z,21.90
2018-06-08T04:15:46.203Z,22.00
2018-06-08T04:18:14.574Z,22.20
2018-06-08T04:20:42.905Z,22.20
2018-06-08T04:23:11.262Z,22.20
2018-06-08T04:25:39.614Z,22.10
2018-06-08T04:28:08.046Z,22.00
2018-06-08T04:30:36.391Z,22.00
2018-06-08T04:33:04.822Z,22.00
2018-06-08T04:35:33.268Z,22.10
2018-06-08T04:38:01.609Z,22.20
2018-06-08T04:40:29.977Z,22.30
2018-06-08T04:42:58.360Z,22.20
2018-06-08T04:45:26.704Z,22.10
2018-06-08T04:47:55.061Z,22.00
2018-06-08T04:50:23.389Z,21.80
2018-06-08T04:52:51.736Z,21.70
2018-06-08T04:55:20.098Z,21.70
2018-06-08T04:57:48.454Z,21.90
2018-06-08T05:00:16.814Z,21.90
2018-06-08T05:02:45.209Z,21.90
2018-06-08T05:05:13.755Z,21.70
2018-06-08T05:07:42.179Z,21.70
2018-06-08T05:10:10.558Z,21.60
2018-06-08T05:12:39.132Z,21.40
2018-06-08T05:15:07.519Z,21.30
2018-06-08T05:17:35.929Z,21.40
2018-06-08T05:20:04.423Z,21.50
2018-06-08T05:22:32.821Z,21.60
2018-06-08T05:25:01.382Z,21.60
2018-06-08T05:27:29.851Z,21.70
2018-06-08T05:29:58.233Z,21.70
2018-06-08T05:32:26.630Z,21.70
2018-06-08T05:34:55.033Z,21.80
2018-06-08T05:37:23.628Z,21.90
2018-06-08T05:39:51.998Z,21.90
2018-06-08T05:42:20.386Z,22.10
2018-06-08T05:44:48.804Z,22.30
2018-06-08T05:47:17.186Z,22.30
2018-06-08T05:49:45.755Z,22.40
2018-06-08T05:52:14.142Z,22.60
2018-06-08T05:54:42.543Z,22.60
2018-06-08T05:57:10.988Z,22.60
2018-06-08T05:59:39.356Z,22.70
2018-06-08T06:02:07.753Z,22.80
2018-06-08T06:04:36.105Z,22.80
2018-06-08T06:09:32.557Z,22.50
2018-06-08T06:12:05.805Z,22.60
2018-06-08T06:14:34.317Z,22.60
2018-06-08T06:17:02.676Z,22.30
2018-06-08T06:19:31.020Z,22.40
2018-06-08T06:21:59.381Z,22.60
2018-06-08T06:24:27.745Z,22.70
2018-06-08T06:26:56.082Z,22.70
2018-06-08T06:29:24.570Z,22.70
2018-06-08T06:31:52.914Z,22.90
2018-06-08T06:34:21.254Z,23.10
2018-06-08T06:36:49.635Z,23.00
2018-06-08T06:39:17.968Z,23.00
2018-06-08T06:41:46.297Z,22.90
2018-06-08T06:44:14.682Z,22.90
2018-06-08T06:46:43.029Z,22.80
2018-06-08T06:49:11.374Z,22.70
2018-06-08T06:51:39.729Z,22.90
2018-06-08T06:54:08.078Z,23.00
2018-06-08T06:56:36.461Z,23.10
2018-06-08T06:59:04.910Z,23.30
2018-06-08T07:01:33.302Z,23.30
2018-06-08T07:04:01.731Z,23.30
2018-06-08T07:06:30.139Z,23.50
2018-06-08T07:08:58.558Z,23.50
2018-06-08T07:11:26.972Z,23.40
2018-06-08T07:13:55.357Z,23.60
2018-06-08T07:16:23.778Z,23.70
2018-06-08T07:18:52.182Z,23.60
2018-06-08T07:21:20.732Z,23.90
2018-06-08T07:23:49.135Z,24.10
2018-06-08T07:26:18.031Z,24.20
2018-06-08T07:28:46.442Z,24.40
2018-06-08T07:31:14.833Z,24.50
2018-06-08T07:33:43.258Z,24.50
2018-06-08T07:36:11.661Z,24.60
2018-06-08T07:38:40.061Z,24.80
2018-06-08T07:41:08.551Z,24.90
2018-06-08T07:43:36.925Z,25.10
2018-06-08T07:46:05.459Z,25.30
2018-06-08T07:48:33.867Z,25.40
2018-06-08T07:51:02.301Z,25.70
2018-06-08T07:53:30.674Z,25.90
2018-06-08T07:55:59.104Z,26.20
2018-06-08T07:58:27.662Z,26.50
2018-06-08T08:00:56.030Z,26.70
2018-06-08T08:03:24.366Z,27.20
2018-06-08T08:05:52.732Z,27.80
2018-06-08T08:08:21.065Z,28.20
2018-06-08T08:10:49.425Z,28.10
2018-06-08T08:13:17.774Z,28.10
2018-06-08T08:15:46.115Z,28.70
2018-06-08T08:18:14.473Z,29.30
2018-06-08T08:20:42.805Z,30.00
2018-06-08T08:23:11.183Z,30.60
2018-06-08T08:25:39.541Z,31.20
2018-06-08T08:28:07.886Z,31.80
2018-06-08T08:30:36.272Z,31.90
2018-06-08T08:33:04.609Z,31.50
2018-06-08T08:35:32.976Z,31.40
2018-06-08T08:38:01.322Z,31.50
2018-06-08T08:40:29.690Z,31.60
2018-06-08T08:42:58.060Z,31.50
2018-06-08T08:45:26.391Z,30.90
2018-06-08T08:47:54.758Z,31.00
2018-06-08T08:50:23.106Z,31.30
2018-06-08T08:52:51.445Z,31.30
2018-06-08T08:55:19.822Z,31.00
2018-06-08T08:57:48.149Z,30.70
2018-06-08T09:00:16.501Z,31.00
2018-06-08T09:02:44.928Z,31.30
2018-06-08T09:05:13.346Z,31.80
2018-06-08T09:07:41.784Z,31.40
2018-06-08T09:10:10.180Z,30.80
2018-06-08T09:12:38.601Z,30.30
2018-06-08T09:15:06.999Z,30.20
2018-06-08T09:17:35.550Z,30.40
2018-06-08T09:20:04.100Z,30.30
2018-06-08T09:22:32.434Z,29.60
2018-06-08T09:25:00.839Z,29.40
2018-06-08T09:27:29.247Z,28.90
2018-06-08T09:29:57.810Z,28.70
2018-06-08T09:32:26.203Z,28.60
2018-06-08T09:34:54.595Z,28.40
2018-06-08T09:37:22.986Z,28.30
2018-06-08T09:39:51.386Z,28.30
2018-06-08T09:42:19.818Z,28.20
2018-06-08T09:44:48.230Z,28.40
2018-06-08T09:47:16.636Z,28.60
2018-06-08T09:49:45.090Z,28.80
2018-06-08T09:52:13.437Z,28.90
2018-06-08T09:54:42.007Z,29.30
2018-06-08T09:57:10.394Z,29.70
2018-06-08T09:59:38.798Z,30.20
2018-06-08T10:02:07.241Z,30.00
2018-06-08T10:04:35.630Z,29.80
2018-06-08T10:07:04.038Z,29.60
2018-06-08T10:09:32.427Z,29.20
2018-06-08T10:12:00.817Z,29.40
2018-06-08T10:14:29.195Z,29.30
2018-06-08T10:16:57.589Z,29.30
2018-06-08T10:19:26.002Z,29.40
2018-06-08T10:21:54.393Z,29.30
2018-06-08T10:24:22.813Z,29.30
2018-06-08T10:26:51.198Z,29.10
2018-06-08T10:29:19.594Z,29.10
2018-06-08T10:31:48.001Z,29.00
2018-06-08T10:34:16.386Z,28.80
2018-06-08T10:36:44.795Z,28.60
2018-06-08T10:39:13.206Z,28.50
2018-06-08T10:41:41.579Z,28.30
2018-06-08T10:44:09.919Z,28.20
2018-06-08T10:46:38.257Z,28.30
2018-06-08T10:49:06.630Z,28.20
2018-06-08T10:51:34.992Z,28.10
2018-06-08T10:54:03.477Z,28.00
2018-06-08T10:56:31.808Z,28.10
2018-06-08T10:59:00.141Z,28.20
2018-06-08T11:01:28.561Z,28.20
2018-06-08T11:03:56.946Z,28.00
2018-06-08T11:06:25.350Z,28.00
2018-06-08T11:08:53.743Z,28.00
2018-06-08T11:11:22.138Z,28.00
2018-06-08T11:13:50.549Z,27.90
2018-06-08T11:16:18.975Z,27.90
2018-06-08T11:18:47.397Z,28.00
2018-06-08T11:21:15.782Z,28.10
2018-06-08T11:23:44.325Z,27.90
2018-06-08T11:26:12.707Z,27.80
2018-06-08T11:28:41.105Z,27.70
2018-06-08T11:31:09.536Z,27.70
2018-06-08T11:33:37.922Z,27.80
2018-06-08T11:36:06.366Z,27.80
2018-06-08T11:38:34.741Z,27.90
2018-06-08T11:41:03.130Z,27.90
2018-06-08T11:43:31.557Z,27.90
2018-06-08T11:45:59.955Z,27.90
2018-06-08T11:48:28.369Z,28.00
2018-06-08T11:50:56.770Z,28.10
2018-06-08T11:53:25.169Z,28.20
2018-06-08T11:55:53.565Z,28.20
2018-06-08T11:58:21.957Z,28.20
2018-06-08T12:00:50.364Z,28.30
2018-06-08T12:03:18.766Z,28.30
2018-06-08T12:05:47.133Z,28.30
2018-06-08T12:08:15.541Z,28.30
2018-06-08T12:10:43.992Z,28.20
2018-06-08T12:13:12.393Z,28.20
2018-06-08T12:15:40.802Z,28.20
2018-06-08T12:18:09.194Z,28.20
2018-06-08T12:20:37.617Z,28.30
2018-06-08T12:23:06.074Z,28.10
2018-06-08T12:25:34.495Z,28.10
2018-06-08T12:28:02.886Z,28.10
2018-06-08T12:30:31.272Z,28.10
2018-06-08T12:32:59.701Z,28.20
2018-06-08T12:35:28.096Z,28.20
2018-06-08T12:37:56.682Z,28.20
2018-06-08T12:40:25.066Z,28.20
2018-06-08T12:42:53.446Z,28.20
2018-06-08T12:47:49.966Z,27.90
2018-06-08T12:50:18.373Z,27.90
2018-06-08T12:52:46.757Z,27.90
2018-06-08T12:55:15.154Z,28.00
2018-06-08T12:57:43.537Z,28.10
2018-06-08T13:00:11.926Z,28.20
2018-06-08T13:02:40.289Z,28.20
2018-06-08T13:05:08.658Z,28.30
2018-06-08T13:07:37.158Z,28.30
2018-06-08T13:10:05.568Z,28.30
2018-06-08T13:12:33.901Z,28.30
2018-06-08T13:15:02.245Z,28.30
2018-06-08T13:17:30.578Z,28.30
2018-06-08T13:19:58.945Z,28.30
2018-06-08T13:22:27.266Z,28.30
2018-06-08T13:24:55.809Z,28.40
2018-06-08T13:27:24.146Z,28.40
2018-06-08T13:29:52.479Z,28.40
2018-06-08T13:32:20.856Z,28.40
2018-06-08T13:37:17.423Z,28.30
2018-06-08T13:39:45.765Z,28.30
2018-06-08T13:42:14.105Z,28.30
2018-06-08T13:44:42.465Z,28.30
2018-06-08T13:47:10.809Z,28.30
2018-06-08T13:49:39.322Z,28.30
2018-06-08T13:52:07.662Z,28.30
2018-06-08T13:54:36.010Z,28.20
2018-06-08T13:57:04.368Z,28.20
2018-06-08T13:59:32.712Z,28.20
2018-06-08T14:02:01.146Z,28.20
2018-06-08T14:04:29.543Z,28.20
2018-06-08T14:06:57.934Z,28.20
2018-06-08T14:09:26.351Z,28.20
2018-06-08T14:11:54.796Z,28.20
2018-06-08T14:14:23.320Z,28.20
2018-06-08T14:16:51.710Z,28.30
2018-06-08T14:19:20.106Z,28.20
2018-06-08T14:21:49.904Z,28.20
2018-06-08T14:24:18.326Z,28.20
2018-06-08T14:26:46.870Z,28.20
2018-06-08T14:29:15.350Z,28.20
2018-06-08T14:31:43.783Z,28.20
2018-06-08T14:34:12.202Z,28.20
2018-06-08T14:36:40.680Z,28.20
2018-06-08T14:39:09.232Z,28.20
2018-06-08T14:41:37.653Z,28.30
2018-06-08T14:44:06.046Z,28.30
2018-06-08T14:46:34.480Z,28.30
2018-06-08T14:49:02.873Z,28.30
2018-06-08T14:51:31.284Z,28.20
2018-06-08T14:53:59.658Z,28.00
2018-06-08T14:56:28.065Z,27.90
2018-06-08T14:58:56.503Z,27.80
2018-06-08T15:01:24.871Z,27.80
2018-06-08T15:03:54.585Z,27.60
2018-06-08T15:06:24.621Z,27.70
2018-06-08T15:08:55.162Z,27.70
2018-06-08T15:11:23.530Z,27.50
2018-06-08T15:13:52.966Z,27.40
2018-06-08T15:16:21.676Z,27.50
2018-06-08T15:18:50.173Z,27.40
2018-06-08T15:21:18.767Z,27.40
2018-06-08T15:23:47.165Z,27.40
2018-06-08T15:26:15.579Z,27.30
2018-06-08T15:28:44.014Z,27.20
2018-06-08T15:31:12.444Z,27.20
2018-06-08T15:33:40.961Z,27.30
2018-06-08T15:36:09.455Z,27.30
2018-06-08T15:38:37.931Z,27.40
2018-06-08T15:41:06.386Z,27.40
2018-06-08T15:43:34.949Z,27.40
2018-06-08T15:46:04.439Z,27.50
2018-06-08T15:48:32.896Z,27.60
2018-06-08T15:51:01.546Z,27.60
2018-06-08T15:53:29.948Z,27.60
2018-06-08T15:55:58.360Z,27.70
2018-06-08T15:58:26.818Z,27.70
2018-06-08T16:00:55.286Z,27.70
2018-06-08T16:03:23.654Z,27.70
2018-06-08T16:05:52.040Z,27.70
2018-06-08T16:08:20.453Z,27.80
2018-06-08T16:10:48.835Z,27.80
2018-06-08T16:13:17.333Z,27.80
2018-06-08T16:15:45.755Z,27.80
2018-06-08T16:18:14.160Z,27.80
2018-06-08T16:20:42.570Z,27.80
2018-06-08T16:23:15.311Z,27.90
2018-06-08T16:25:43.746Z,27.90
2018-06-08T16:28:12.345Z,27.90
2018-06-08T16:30:40.724Z,28.00
2018-06-08T16:33:09.167Z,27.90
2018-06-08T16:35:37.567Z,27.90
2018-06-08T16:38:05.975Z,28.00
2018-06-08T16:40:34.370Z,27.90
2018-06-08T16:43:02.805Z,27.90
2018-06-08T16:45:31.186Z,27.90
2018-06-08T16:47:59.547Z,27.90
2018-06-08T16:50:27.977Z,27.90
2018-06-08T16:52:56.384Z,27.90
2018-06-08T16:55:24.768Z,27.90
2018-06-08T16:57:53.196Z,27.90
2018-06-08T17:00:21.606Z,27.90
2018-06-08T17:02:49.983Z,27.90
2018-06-08T17:05:18.326Z,27.90
2018-06-08T17:07:46.650Z,27.90
2018-06-08T17:10:15.002Z,27.80
2018-06-08T17:12:43.331Z,27.80
2018-06-08T17:15:11.690Z,27.80
2018-06-08T17:17:40.053Z,27.80
2018-06-08T17:20:08.402Z,27.70
2018-06-08T17:22:36.758Z,27.80
2018-06-08T17:25:05.106Z,27.70
2018-06-08T17:27:33.462Z,27.70
2018-06-08T17:30:01.802Z,27.70
2018-06-08T17:32:30.129Z,27.70
2018-06-08T17:34:58.639Z,27.70
2018-06-08T17:37:26.969Z,27.70
2018-06-08T17:39:55.322Z,27.70
2018-06-08T17:42:23.690Z,27.70
2018-06-08T17:44:52.010Z,27.70
2018-06-08T17:47:20.363Z,27.70
2018-06-08T17:49:48.700Z,27.70
2018-06-08T17:52:17.145Z,27.60
2018-06-08T17:54:45.457Z,27.60
2018-06-08T17:57:13.844Z,27.60
2018-06-08T17:59:42.177Z,27.60
2018-06-08T18:02:10.566Z,27.50
2018-06-08T18:04:38.970Z,27.60
2018-06-08T18:07:07.377Z,27.60
2018-06-08T18:09:35.781Z,27.70
2018-06-08T18:12:04.221Z,27.70
2018-06-08T18:14:32.613Z,27.70
2018-06-08T18:17:01.042Z,27.70
2018-06-08T18:19:30.220Z,27.70
2018-06-08T18:21:58.597Z,27.60
2018-06-08T18:24:27.076Z,27.60
2018-06-08T18:26:56.501Z,27.50
2018-06-08T18:29:24.916Z,27.40
2018-06-08T18:31:53.281Z,27.50
2018-06-08T18:34:21.678Z,27.50
2018-06-08T18:36:50.086Z,27.50
2018-06-08T18:39:18.470Z,27.50
2018-06-08T18:41:53.857Z,27.50
2018-06-08T18:44:22.238Z,27.40
2018-06-08T18:46:50.657Z,27.40
2018-06-08T18:49:19.081Z,27.30
2018-06-08T18:51:47.468Z,27.30
2018-06-08T18:54:15.941Z,27.20
2018-06-08T18:56:44.346Z,27.10
2018-06-08T18:59:12.750Z,27.10
2018-06-08T19:01:41.165Z,27.10
2018-06-08T19:04:09.579Z,27.10
2018-06-08T19:06:37.997Z,27.10
2018-06-08T19:09:08.435Z,27.10
2018-06-08T19:11:36.871Z,27.10
2018-06-08T19:14:05.313Z,27.00
2018-06-08T19:16:33.723Z,27.00
2018-06-08T19:19:02.133Z,27.00
2018-06-08T19:21:30.521Z,27.00
2018-06-08T19:23:58.902Z,27.00
2018-06-08T19:26:28.182Z,26.90
2018-06-08T19:28:56.585Z,26.90
2018-06-08T19:31:24.962Z,26.80
2018-06-08T19:33:53.386Z,26.70
2018-06-08T19:36:21.779Z,26.50
2018-06-08T19:38:50.166Z,26.60
2018-06-08T19:41:18.599Z,26.60
2018-06-08T19:43:46.998Z,26.70
2018-06-08T19:46:15.396Z,26.70
2018-06-08T19:48:43.813Z,26.60
2018-06-08T19:51:12.213Z,26.70
2018-06-08T19:53:40.604Z,26.60
2018-06-08T19:56:09.014Z,26.50
2018-06-08T19:58:37.411Z,26.50
2018-06-08T20:01:05.801Z,26.40
2018-06-08T20:03:34.153Z,26.20
2018-06-08T20:06:02.488Z,26.20
2018-06-08T20:08:30.863Z,26.20
2018-06-08T20:10:59.225Z,26.10
2018-06-08T20:13:27.567Z,26.10
2018-06-08T20:15:55.929Z,26.10
2018-06-08T20:18:24.281Z,26.20
2018-06-08T20:20:52.648Z,26.10
2018-06-08T20:23:20.985Z,26.00
2018-06-08T20:25:49.335Z,25.90
2018-06-08T20:28:17.712Z,25.90
2018-06-08T20:30:46.035Z,25.80
2018-06-08T20:33:14.429Z,25.90
2018-06-08T20:35:42.765Z,25.90
2018-06-08T20:38:11.297Z,25.90
2018-06-08T20:40:39.648Z,25.90
2018-06-08T20:43:08.013Z,25.90
2018-06-08T20:45:36.549Z,25.90
2018-06-08T20:48:04.942Z,25.90
2018-06-08T20:50:33.298Z,25.80
2018-06-08T20:53:01.710Z,25.70
2018-06-08T20:55:30.062Z,25.60
2018-06-08T20:58:02.290Z,25.50
2018-06-08T21:00:30.646Z,25.40
2018-06-08T21:02:59.002Z,25.40
2018-06-08T21:05:27.395Z,25.40
2018-06-08T21:07:55.745Z,25.20
2018-06-08T21:10:24.088Z,25.40
2018-06-08T21:12:52.617Z,25.40
2018-06-08T21:15:21.040Z,25.50
2018-06-08T21:20:17.513Z,25.20
2018-06-08T21:25:13.930Z,24.80
2018-06-08T21:27:42.343Z,24.90
2018-06-08T21:30:10.691Z,24.90
2018-06-08T21:32:39.114Z,24.70
2018-06-08T21:35:07.717Z,24.70
2018-06-08T21:37:36.144Z,24.70
2018-06-08T21:40:04.526Z,24.60
2018-06-08T21:42:32.958Z,24.60
2018-06-08T21:45:01.335Z,24.40
2018-06-08T21:47:29.895Z,24.20
2018-06-08T21:49:58.305Z,24.10
2018-06-08T21:52:26.714Z,24.10
2018-06-08T21:54:55.322Z,24.10
2018-06-08T21:57:23.769Z,24.20
2018-06-08T21:59:52.188Z,24.30
2018-06-08T22:02:20.649Z,24.40
2018-06-08T22:04:49.060Z,24.40
2018-06-08T22:09:45.689Z,24.60
2018-06-08T22:12:25.047Z,24.60
2018-06-08T22:17:46.740Z,24.70
2018-06-08T22:20:15.223Z,24.70
2018-06-08T22:22:43.681Z,24.60
2018-06-08T22:25:12.209Z,24.40
2018-06-08T22:27:40.799Z,24.40
2018-06-08T22:30:09.265Z,24.30
2018-06-08T22:32:37.654Z,24.20
2018-06-08T22:35:06.233Z,24.20
2018-06-08T22:37:34.581Z,24.10
2018-06-08T22:40:02.933Z,24.10
2018-06-08T22:42:31.474Z,24.10
2018-06-08T22:44:59.805Z,23.90
2018-06-08T22:47:28.146Z,23.80
2018-06-08T22:49:56.506Z,23.80
2018-06-08T22:52:24.837Z,23.70
2018-06-08T22:54:53.198Z,23.60
2018-06-08T22:57:21.517Z,23.60
2018-06-08T22:59:49.879Z,23.60
2018-06-08T23:02:18.213Z,23.60
2018-06-08T23:04:46.557Z,23.50
2018-06-08T23:07:14.909Z,23.60
2018-06-08T23:09:43.232Z,23.50
2018-06-08T23:12:11.557Z,23.60
2018-06-08T23:14:39.902Z,23.60
2018-06-08T23:17:08.230Z,23.50
2018-06-08T23:19:36.549Z,23.40
2018-06-08T23:22:04.914Z,23.30
2018-06-08T23:24:33.253Z,23.30
2018-06-08T23:27:01.579Z,23.40
2018-06-08T23:29:29.939Z,23.40
2018-06-08T23:31:58.274Z,23.40
2018-06-08T23:34:26.634Z,23.50
2018-06-08T23:36:55.005Z,23.40
2018-06-08T23:39:23.338Z,23.40
2018-06-08T23:41:51.663Z,23.30
2018-06-08T23:44:20.023Z,23.40
2018-06-08T23:46:48.361Z,23.40
2018-06-08T23:49:16.862Z,23.40
2018-06-08T23:51:45.184Z,23.40
2018-06-08T23:54:13.520Z,23.30
2018-06-08T23:56:41.867Z,23.40
2018-06-08T23:59:10.204Z,23.50
